In Rescue
 
Wind Gusting 21 knots
13
February 23, 2019 11:55 PM EST
Weather Information
Wind Direction
  160 °
Wind Speed
  13 kt (15 mph)
Wind Gust
  21 kt (24 mph)
Altimeter
29.58 in
Visibility
10 SM
Temperature
13° C
55° F
Dewpoint
13° C
55° F
Humidity
100%
Sky Condition
Overcast @ 1,200 ft
Broken @ 900 ft
IFR

METAR KIMS 240455Z AUTO 16013G21KT 10SM BKN009 OVC012 13/13 A2958 RMK AO1

FAA Disclaimer: The data displayed is for advisory purposes only and is not to be used for flight planning or operations.